Aérodrome :
LOGIN :

S'inscrire | Disclaimer

   EN    FR    IT 

 










Légende :    VFR   VFR Marginal   IFR   IFR Intensif   IFR Très Intensif
Visi : 
Plafond : 
>= 8 km
>= 3000ft
5 à 8 km
1000 à 3000 ft
1500m à 5 km
500 à 1000 ft
800 à 1500m
200 à 500 ft
< 800m
< 200 ft
Symboles :   Orages  Brouillard  Fortes neiges  Fortes précipitations  Vent > 20 kt
SIGMETs :   Divers  Orages  Givrage  Turbulence  Onde Orograph.  Cendres Volcan.







- Altitude de l'aérodrome : 95 ft
- Code IATA : AHU


GMTA - Al Hoceima

DERNIER METAR :
  • 191700Z 10004KT 9999 FEW020TCU BKN030 BKN080 21/12 Q1010 NOSIG

METARs EXPIRÉS :
  • 191600Z 04004KT 9999 SCT030 BKN080 22/12 Q1009 NOSIG
  • 191500Z 04006KT 9999 BKN030 BKN080 22/19 Q1009 NOSIG

TAF TAF GMTA
Valide du 19 à 12h jusqu'au 20 à 18h UTC


191100Z 1912/2018 04008KT 9999 SCT030 BKN080
PROB40
TEMPO 2000/2106 6000 -RA
Pas de NOTAMs connus pour ce terrain.
2 SIGMETs publiés pour la FIR Casablanca (GMMM) :
 
Turbulence forte
GMMM SIGMET T2 VALID 191400/191800 GMMC
GMMM CASABLANCA FIR SEV TURB FCST E OF LINE N3413 W00201 - N3015 W00 627 FL240/380 MOV E NC=
Orages noyés dans la masse
GMMM SIGMET A2 VALID 191630/192000 GMMC
GMMM CASABLANCA FIR EMBD TS FCST WI N3449 W00452 - N3202 W00449 - N3 152 W00755 - N3452 W01113 - N3354 W00751 - N3449 W00452 TOP FL320 MO V NE NC=



MET'MAP, la Météo Aéronautique d'un coup d'oeil ! - Copyright ORBIFLY Décembre 2007 - Disclaimer

ORBIFLY MET'MAP TEAM :

Programmation & Développement : Alexandra Zaïnal
Conception & Développement : Baudouin d'Aumeries
Co-Programmation & Développement : Marc-Olivier Méhu
Soutien technique & logistique : Manuel Goepfert

Contact : metmap@orbifly.com




SOURCES & CREDITS :

   NOAA